Time;durP1;ratioP1;P1;durP2;ratioP2;P2;SDS_P1;SDS_P2;PMS_P1;PMS_P2;Temp;Humidity;BMP_temperature;BMP_pressure;BME280_temperature;BME280_humidity;BME280_pressure;Samples;Min_cycle;Max_cycle;Signal;HPM_P1;HPM_P2
2022/07/12 00:00:32;;;;;;;;;;;;;;;;;;5032290;28;19965;-76
2022/07/12 00:02:58;;;;;;;;;;;;;;;;;;5032256;28;19971;-76
2022/07/12 00:05:25;;;;;;;;;;;;;;;;;;5032312;28;19973;-76
2022/07/12 00:07:51;;;;;;;;;;;;;;;;;;5032210;28;19971;-77
2022/07/12 00:10:19;;;;;;;;;;;;;;;;;;5032276;28;20354;-77
2022/07/12 00:12:45;;;;;;;;;;;;;;;;;;5032218;28;20545;-77
2022/07/12 00:15:12;;;;;;;;;;;;;;;;;;5032255;28;19964;-77
2022/07/12 00:17:39;;;;;;;;;;;;;;;;;;5032143;28;19964;-77
2022/07/12 00:20:06;;;;;;;;;;;;;;;;;;5031846;28;20608;-77
2022/07/12 00:22:33;;;;;;;;;;;;;;;;;;5032049;28;19925;-77
2022/07/12 00:24:59;;;;;;;;;;;;;;;;;;5032093;28;20372;-76
2022/07/12 00:27:28;;;;;;;;;;;;;;;;;;5031924;28;20327;-76
2022/07/12 00:29:55;;;;;;;;;;;;;;;;;;5031906;28;19972;-77
2022/07/12 00:32:21;;;;;;;;;;;;;;;;;;5032104;28;19979;-76
2022/07/12 00:34:48;;;;;;;;;;;;;;;;;;5032112;28;20020;-77
2022/07/12 00:37:14;;;;;;;;;;;;;;;;;;5031462;28;19971;-77
2022/07/12 00:39:41;;;;;;;;;;;;;;;;;;5032020;28;19932;-77
2022/07/12 00:42:07;;;;;;;;;;;;;;;;;;5031917;28;20408;-77
2022/07/12 00:44:35;;;;;;;;;;;;;;;;;;5032296;28;19926;-77
2022/07/12 00:47:02;;;;;;;;;;;;;;;;;;5032095;28;20002;-77
2022/07/12 00:49:29;;;;;;;;;;;;;;;;;;5033411;28;19976;-77
2022/07/12 00:51:56;;;;;;;;;;;;;;;;;;5031930;28;20022;-77
2022/07/12 00:54:22;;;;;;;;;;;;;;;;;;5032282;28;20032;-76
2022/07/12 00:56:49;;;;;;;;;;;;;;;;;;5031561;28;19968;-77
2022/07/12 00:59:15;;;;;;;;;;;;;;;;;;5031846;28;19972;-77
2022/07/12 01:01:43;;;;;;;;;;;;;;;;;;5031596;28;19972;-77
2022/07/12 01:04:11;;;;;;;;;;;;;;;;;;5032065;28;20012;-77
2022/07/12 01:06:38;;;;;;;;;;;;;;;;;;5032072;28;20035;-78
2022/07/12 01:09:04;;;;;;;;;;;;;;;;;;5031694;28;19968;-77
2022/07/12 01:11:31;;;;;;;;;;;;;;;;;;5031686;28;20066;-77
2022/07/12 01:13:58;;;;;;;;;;;;;;;;;;5032928;28;19925;-77
2022/07/12 01:16:25;;;;;;;;;;;;;;;;;;5034868;28;19925;-77
2022/07/12 01:18:52;;;;;;;;;;;;;;;;;;5035278;28;19976;-77
2022/07/12 01:21:19;;;;;;;;;;;;;;;;;;5035132;28;19995;-76
2022/07/12 01:23:48;;;;;;;;;;;;;;;;;;5035628;28;19925;-77
2022/07/12 01:26:14;;;;;;;;;;;;;;;;;;5034345;28;19987;-76
2022/07/12 01:28:41;;;;;;;;;;;;;;;;;;5035133;28;19925;-77
2022/07/12 01:31:07;;;;;;;;;;;;;;;;;;5034676;28;19960;-77
2022/07/12 01:33:34;;;;;;;;;;;;;;;;;;5034772;28;19926;-77
2022/07/12 01:36:01;;;;;;;;;;;;;;;;;;5034422;28;19925;-78
2022/07/12 01:38:27;;;;;;;;;;;;;;;;;;5034670;28;19932;-77
2022/07/12 01:40:56;;;;;;;;;;;;;;;;;;5034631;28;20011;-77
2022/07/12 01:43:22;;;;;;;;;;;;;;;;;;5035024;28;20007;-77
2022/07/12 01:45:49;;;;;;;;;;;;;;;;;;5035124;28;19983;-77
2022/07/12 01:48:15;;;;;;;;;;;;;;;;;;5034892;28;19979;-77
2022/07/12 01:50:43;;;;;;;;;;;;;;;;;;5060880;22;19925;-58
2022/07/12 01:53:11;;;;;;;;;;;;;;;;;;5032452;28;19937;-62
2022/07/12 01:55:38;;;;;;;;;;;;;;;;;;5034552;28;20362;-62
2022/07/12 01:58:06;;;;;;;;;;;;;;;;;;5034412;28;20384;-61
2022/07/12 02:00:32;;;;;;;;;;;;;;;;;;5045939;28;20693;-61
2022/07/12 02:02:59;;;;;;;;;;;;;;;;;;5054009;28;19968;-61
2022/07/12 02:05:26;;;;;;;;;;;;;;;;;;5054075;28;19925;-58
2022/07/12 02:07:52;;;;;;;;;;;;;;;;;;5053737;28;19928;-61
2022/07/12 02:10:19;;;;;;;;;;;;;;;;;;5054044;28;19928;-61
2022/07/12 02:12:45;;;;;;;;;;;;;;;;;;5053864;28;19928;-61
2022/07/12 02:15:13;;;;;;;;;;;;;;;;;;5053777;28;19925;-62
2022/07/12 02:17:40;;;;;;;;;;;;;;;;;;5053451;28;20348;-61
2022/07/12 02:20:07;;;;;;;;;;;;;;;;;;5053978;28;20444;-60
2022/07/12 02:22:34;;;;;;;;;;;;;;;;;;5053749;28;20293;-60
2022/07/12 02:25:01;;;;;;;;;;;;;;;;;;5052989;28;20368;-61
2022/07/12 02:27:27;;;;;;;;;;;;;;;;;;5053270;28;19978;-62
2022/07/12 02:29:54;;;;;;;;;;;;;;;;;;5053744;28;20383;-60
2022/07/12 02:32:22;;;;;;;;;;;;;;;;;;5053556;28;19925;-61
2022/07/12 02:34:48;;;;;;;;;;;;;;;;;;5053628;28;19971;-61
2022/07/12 02:37:15;;;;;;;;;;;;;;;;;;5053362;28;19928;-61
2022/07/12 02:39:42;;;;;;;;;;;;;;;;;;5053236;28;20381;-62
2022/07/12 02:42:08;;;;;;;;;;;;;;;;;;5053602;28;19924;-61
2022/07/12 02:44:35;;;;;;;;;;;;;;;;;;5053325;28;19929;-59
2022/07/12 02:47:01;;;;;;;;;;;;;;;;;;5053023;28;19952;-61
2022/07/12 02:49:29;;;;;;;;;;;;;;;;;;5053178;28;19925;-61
2022/07/12 02:51:56;;;;;;;;;;;;;;;;;;5052928;28;19933;-61
2022/07/12 02:54:22;;;;;;;;;;;;;;;;;;5053169;28;19925;-61
2022/07/12 02:56:49;;;;;;;;;;;;;;;;;;5052772;28;19925;-61
2022/07/12 02:59:15;;;;;;;;;;;;;;;;;;5051123;28;19928;-61
2022/07/12 03:01:42;;;;;;;;;;;;;;;;;;5033107;28;19948;-61
2022/07/12 03:04:08;;;;;;;;;;;;;;;;;;5033186;28;20353;-61
2022/07/12 03:06:36;;;;;;;;;;;;;;;;;;5032762;28;20505;-59
2022/07/12 03:09:03;;;;;;;;;;;;;;;;;;5033075;28;19929;-60
2022/07/12 03:11:30;;;;;;;;;;;;;;;;;;5032621;28;19936;-61
2022/07/12 03:13:56;;;;;;;;;;;;;;;;;;5032990;28;20370;-61
2022/07/12 03:16:23;;;;;;;;;;;;;;;;;;5032454;28;19929;-60
2022/07/12 03:18:49;;;;;;;;;;;;;;;;;;5033127;28;19925;-60
2022/07/12 03:21:16;;;;;;;;;;;;;;;;;;5032774;28;20330;-61
2022/07/12 03:23:44;;;;;;;;;;;;;;;;;;5032653;28;20188;-61
2022/07/12 03:26:11;;;;;;;;;;;;;;;;;;5032241;28;20148;-61
2022/07/12 03:28:37;;;;;;;;;;;;;;;;;;5032613;28;19934;-59
2022/07/12 03:31:04;;;;;;;;;;;;;;;;;;5032584;28;19925;-61
2022/07/12 03:33:30;;;;;;;;;;;;;;;;;;5032424;28;19925;-60
2022/07/12 03:35:57;;;;;;;;;;;;;;;;;;5032267;28;19925;-61
2022/07/12 03:38:23;;;;;;;;;;;;;;;;;;5032261;28;19929;-61
2022/07/12 03:40:51;;;;;;;;;;;;;;;;;;5032507;28;19936;-61
2022/07/12 03:43:18;;;;;;;;;;;;;;;;;;5032485;28;19925;-61
2022/07/12 03:45:45;;;;;;;;;;;;;;;;;;5032523;28;19925;-60
2022/07/12 03:48:12;;;;;;;;;;;;;;;;;;5032128;28;19976;-61
2022/07/12 03:50:38;;;;;;;;;;;;;;;;;;5032394;28;19932;-61
2022/07/12 03:53:05;;;;;;;;;;;;;;;;;;5032136;28;19976;-61
2022/07/12 03:55:31;;;;;;;;;;;;;;;;;;5032262;28;19929;-61
2022/07/12 03:57:59;;;;;;;;;;;;;;;;;;5031892;28;19932;-61
2022/07/12 04:00:26;;;;;;;;;;;;;;;;;;5043907;28;20397;-59
2022/07/12 04:02:54;;;;;;;;;;;;;;;;;;5051937;28;19931;-60
2022/07/12 04:05:25;;;;;;;;;;;;;;;;;;5052369;28;20325;-61
2022/07/12 04:07:52;;;;;;;;;;;;;;;;;;5052018;28;19956;-59
2022/07/12 04:10:18;;;;;;;;;;;;;;;;;;5052078;28;19932;-59
2022/07/12 04:12:45;;;;;;;;;;;;;;;;;;5052059;28;19925;-60
2022/07/12 04:15:13;;;;;;;;;;;;;;;;;;5051993;28;19929;-61
2022/07/12 04:17:39;;;;;;;;;;;;;;;;;;5051626;28;19978;-61
2022/07/12 04:20:07;;;;;;;;;;;;;;;;;;5051888;28;19970;-59
2022/07/12 04:22:34;;;;;;;;;;;;;;;;;;5051990;28;20326;-61
2022/07/12 04:25:00;;;;;;;;;;;;;;;;;;5051959;28;20366;-62
2022/07/12 04:27:27;;;;;;;;;;;;;;;;;;5051630;28;20329;-61
2022/07/12 04:29:53;;;;;;;;;;;;;;;;;;5051887;28;20346;-60
2022/07/12 04:32:21;;;;;;;;;;;;;;;;;;5051725;28;19925;-60
2022/07/12 04:34:48;;;;;;;;;;;;;;;;;;5051736;28;19924;-61
2022/07/12 04:37:15;;;;;;;;;;;;;;;;;;5051666;28;19924;-61
2022/07/12 04:39:41;;;;;;;;;;;;;;;;;;5051751;28;19932;-60
2022/07/12 04:42:08;;;;;;;;;;;;;;;;;;5051764;28;19932;-61
2022/07/12 04:44:34;;;;;;;;;;;;;;;;;;5051763;28;19928;-59
2022/07/12 04:47:01;;;;;;;;;;;;;;;;;;5051428;28;20011;-61
2022/07/12 04:49:29;;;;;;;;;;;;;;;;;;5054204;28;19924;-62
2022/07/12 04:51:55;;;;;;;;;;;;;;;;;;5055253;28;19932;-60
2022/07/12 04:54:22;;;;;;;;;;;;;;;;;;5055424;28;20309;-60
2022/07/12 04:56:49;;;;;;;;;;;;;;;;;;5055285;28;20385;-59
2022/07/12 04:59:15;;;;;;;;;;;;;;;;;;5053089;28;20344;-60
2022/07/12 05:01:42;;;;;;;;;;;;;;;;;;5035340;28;20456;-61
2022/07/12 05:04:08;;;;;;;;;;;;;;;;;;5035475;28;20310;-61
2022/07/12 05:06:36;;;;;;;;;;;;;;;;;;5035151;28;19979;-60
2022/07/12 05:09:03;;;;;;;;;;;;;;;;;;5035245;28;19944;-61
2022/07/12 05:11:30;;;;;;;;;;;;;;;;;;5035049;28;19936;-61
2022/07/12 05:13:56;;;;;;;;;;;;;;;;;;5035065;28;20398;-62
2022/07/12 05:16:23;;;;;;;;;;;;;;;;;;5034869;28;19929;-61
2022/07/12 05:18:53;;;;;;;;;;;;;;;;;;5035347;28;20371;-61
2022/07/12 05:21:19;;;;;;;;;;;;;;;;;;5035367;28;19992;-61
2022/07/12 05:23:47;;;;;;;;;;;;;;;;;;5034905;28;19929;-60
2022/07/12 05:26:14;;;;;;;;;;;;;;;;;;5034817;28;20413;-62
2022/07/12 05:28:40;;;;;;;;;;;;;;;;;;5034736;28;19925;-61
2022/07/12 05:31:09;;;;;;;;;;;;;;;;;;5034727;28;19929;-61
2022/07/12 05:33:36;;;;;;;;;;;;;;;;;;5034562;28;19925;-61
2022/07/12 05:36:03;;;;;;;;;;;;;;;;;;5034472;28;19987;-61
2022/07/12 05:38:29;;;;;;;;;;;;;;;;;;5034521;28;19925;-62
2022/07/12 05:40:57;;;;;;;;;;;;;;;;;;5034636;28;19940;-62
2022/07/12 05:43:24;;;;;;;;;;;;;;;;;;5034461;28;19933;-60
2022/07/12 05:45:50;;;;;;;;;;;;;;;;;;5034488;28;19983;-62
2022/07/12 05:48:17;;;;;;;;;;;;;;;;;;5034822;28;19929;-61
2022/07/12 05:50:44;;;;;;;;;;;;;;;;;;5034438;28;19936;-60
2022/07/12 05:53:21;;;;;;;;;;;;;;;;;;5034325;28;19941;-60
2022/07/12 05:55:48;;;;;;;;;;;;;;;;;;5034486;28;19924;-58
2022/07/12 05:58:16;;;;;;;;;;;;;;;;;;5034121;28;20329;-60
2022/07/12 06:00:43;;;;;;;;;;;;;;;;;;5048011;28;19931;-60
2022/07/12 06:03:10;;;;;;;;;;;;;;;;;;5054045;28;19924;-62
2022/07/12 06:05:36;;;;;;;;;;;;;;;;;;5054137;28;20307;-61
2022/07/12 06:08:03;;;;;;;;;;;;;;;;;;5054165;28;19937;-62
2022/07/12 06:10:30;;;;;;;;;;;;;;;;;;5054164;28;19928;-61
2022/07/12 06:12:56;;;;;;;;;;;;;;;;;;5053873;28;19978;-61
2022/07/12 06:15:25;;;;;;;;;;;;;;;;;;5054133;28;20006;-60
2022/07/12 06:17:52;;;;;;;;;;;;;;;;;;5053918;28;20012;-61
2022/07/12 06:20:18;;;;;;;;;;;;;;;;;;5054315;28;19931;-60
2022/07/12 06:22:45;;;;;;;;;;;;;;;;;;5053840;28;19925;-61
2022/07/12 06:25:11;;;;;;;;;;;;;;;;;;5053644;28;19971;-61
2022/07/12 06:27:39;;;;;;;;;;;;;;;;;;5053578;28;19932;-59
2022/07/12 06:30:06;;;;;;;;;;;;;;;;;;5053701;28;20015;-61
2022/07/12 06:32:34;;;;;;;;;;;;;;;;;;5053758;28;19925;-61
2022/07/12 06:35:00;;;;;;;;;;;;;;;;;;5053678;28;19928;-61
2022/07/12 06:37:27;;;;;;;;;;;;;;;;;;5053490;28;20279;-61
2022/07/12 06:39:53;;;;;;;;;;;;;;;;;;5053407;28;20047;-61
2022/07/12 06:42:20;;;;;;;;;;;;;;;;;;5053216;28;19929;-59
2022/07/12 06:44:46;;;;;;;;;;;;;;;;;;5053495;28;19947;-61
2022/07/12 06:47:13;;;;;;;;;;;;;;;;;;5053928;28;19924;-61
2022/07/12 06:49:41;;;;;;;;;;;;;;;;;;5053437;28;19986;-60
2022/07/12 06:52:08;;;;;;;;;;;;;;;;;;5052905;28;19925;-61
2022/07/12 06:54:34;;;;;;;;;;;;;;;;;;5053380;28;20282;-60
2022/07/12 06:57:01;;;;;;;;;;;;;;;;;;5053325;28;19979;-60
2022/07/12 06:59:27;;;;;;;;;;;;;;;;;;5050026;28;19925;-60
2022/07/12 07:01:55;;;;;;;;;;;;;;;;;;5033391;28;20341;-61
2022/07/12 07:04:22;;;;;;;;;;;;;;;;;;5033151;28;19925;-61
2022/07/12 07:06:50;;;;;;;;;;;;;;;;;;5032554;28;19925;-61
2022/07/12 07:09:16;;;;;;;;;;;;;;;;;;5033175;28;20456;-60
2022/07/12 07:11:43;;;;;;;;;;;;;;;;;;5034885;28;20212;-60
2022/07/12 07:14:09;;;;;;;;;;;;;;;;;;5052896;28;19986;-61
2022/07/12 07:16:36;;;;;;;;;;;;;;;;;;5052485;28;19971;-60
2022/07/12 07:19:03;;;;;;;;;;;;;;;;;;5052825;28;19955;-61
2022/07/12 07:21:29;;;;;;;;;;;;;;;;;;5052560;28;20287;-61
2022/07/12 07:23:57;;;;;;;;;;;;;;;;;;5052639;28;19933;-61
2022/07/12 07:26:24;;;;;;;;;;;;;;;;;;5052539;28;20538;-61
2022/07/12 07:31:34;;;;;;;;;;;;;;;;;;5052194;28;19935;-60
2022/07/12 07:34:01;;;;;;;;;;;;;;;;;;5052124;28;19932;-62
2022/07/12 07:36:27;;;;;;;;;;;;;;;;;;5024591;28;20386;-64
2022/07/12 07:38:54;;;;;;;;;;;;;;;;;;5030730;28;19929;-63
2022/07/12 07:41:22;;;;;;;;;;;;;;;;;;5030421;28;19987;-64
2022/07/12 07:43:49;;;;;;;;;;;;;;;;;;5030761;28;19925;-63
2022/07/12 07:46:15;;;;;;;;;;;;;;;;;;5030415;28;19925;-64
2022/07/12 07:48:42;;;;;;;;;;;;;;;;;;5030660;28;20429;-63
2022/07/12 07:51:08;;;;;;;;;;;;;;;;;;5030513;28;19929;-64
2022/07/12 07:53:35;;;;;;;;;;;;;;;;;;5036417;22;19925;-77
2022/07/12 07:56:01;;;;;;;;;;;;;;;;;;5009627;28;20300;-77
2022/07/12 07:58:29;;;;;;;;;;;;;;;;;;5008788;28;20372;-77
2022/07/12 08:00:56;;;;;;;;;;;;;;;;;;5026382;28;19925;-77
2022/07/12 08:03:22;;;;;;;;;;;;;;;;;;5030962;28;20303;-76
2022/07/12 08:05:50;;;;;;;;;;;;;;;;;;5031383;28;20036;-77
2022/07/12 08:08:17;;;;;;;;;;;;;;;;;;5041402;28;20441;-79
2022/07/12 08:10:43;;;;;;;;;;;;;;;;;;5036750;28;19925;-78
2022/07/12 08:13:10;;;;;;;;;;;;;;;;;;5036529;28;19925;-77
2022/07/12 08:15:38;;;;;;;;;;;;;;;;;;5038738;28;20008;-78
2022/07/12 08:18:05;;;;;;;;;;;;;;;;;;5032861;28;19979;-77
2022/07/12 08:20:32;;;;;;;;;;;;;;;;;;5032346;28;20446;-78
2022/07/12 08:22:58;;;;;;;;;;;;;;;;;;5034389;28;20008;-78
2022/07/12 08:25:25;;;;;;;;;;;;;;;;;;5034759;28;20016;-78
2022/07/12 08:27:51;;;;;;;;;;;;;;;;;;5035253;28;20012;-77
2022/07/12 08:30:18;;;;;;;;;;;;;;;;;;5035391;28;19986;-80
2022/07/12 08:32:46;;;;;;;;;;;;;;;;;;5036255;28;19972;-77
2022/07/12 08:35:18;;;;;;;;;;;;;;;;;;5035956;28;19925;-79
2022/07/12 08:37:45;;;;;;;;;;;;;;;;;;5037168;28;19976;-79
2022/07/12 08:40:11;;;;;;;;;;;;;;;;;;5034839;28;20506;-79
2022/07/12 08:42:41;;;;;;;;;;;;;;;;;;5036567;28;19983;-79
2022/07/12 08:45:08;;;;;;;;;;;;;;;;;;5038102;28;20014;-79
2022/07/12 08:47:34;;;;;;;;;;;;;;;;;;5038945;28;19929;-79
2022/07/12 08:50:12;;;;;;;;;;;;;;;;;;5036611;28;19993;-78
2022/07/12 08:52:39;;;;;;;;;;;;;;;;;;5036790;28;19979;-78
2022/07/12 08:55:16;;;;;;;;;;;;;;;;;;5036748;28;19925;-78
2022/07/12 08:57:43;;;;;;;;;;;;;;;;;;5040248;28;20383;-78
2022/07/12 09:00:10;;;;;;;;;;;;;;;;;;5042022;28;20379;-78
2022/07/12 09:02:44;;;;;;;;;;;;;;;;;;5042063;28;19964;-78
2022/07/12 09:05:12;;;;;;;;;;;;;;;;;;5041876;28;20012;-78
2022/07/12 09:07:39;;;;;;;;;;;;;;;;;;5040543;28;19961;-78
2022/07/12 09:10:05;;;;;;;;;;;;;;;;;;5040565;28;19948;-78
2022/07/12 09:12:33;;;;;;;;;;;;;;;;;;5039408;28;19933;-79
2022/07/12 09:15:10;;;;;;;;;;;;;;;;;;5038808;28;19925;-78
2022/07/12 09:17:37;;;;;;;;;;;;;;;;;;5042313;28;20051;-78
2022/07/12 09:20:04;;;;;;;;;;;;;;;;;;5037563;28;20402;-78
2022/07/12 09:22:32;;;;;;;;;;;;;;;;;;5036086;28;19929;-79
2022/07/12 09:25:03;;;;;;;;;;;;;;;;;;5037657;28;20009;-78
2022/07/12 09:27:29;;;;;;;;;;;;;;;;;;5039198;28;20372;-79
2022/07/12 09:29:56;;;;;;;;;;;;;;;;;;5037529;28;19925;-78
2022/07/12 09:37:52;;;;;;;;;;;;;;;;;;5034791;28;19932;-78
2022/07/12 09:40:18;;;;;;;;;;;;;;;;;;5034629;28;19991;-78
2022/07/12 09:42:45;;;;;;;;;;;;;;;;;;5034559;28;19932;-79
2022/07/12 09:45:11;;;;;;;;;;;;;;;;;;5034445;28;19952;-78
2022/07/12 09:47:38;;;;;;;;;;;;;;;;;;5033749;28;19972;-77
2022/07/12 09:50:06;;;;;;;;;;;;;;;;;;5033832;28;19925;-77
2022/07/12 09:52:33;;;;;;;;;;;;;;;;;;5033913;28;19929;-77
2022/07/12 09:55:03;;;;;;;;;;;;;;;;;;5034331;28;19925;-78
2022/07/12 09:57:30;;;;;;;;;;;;;;;;;;5033539;28;19924;-77
2022/07/12 09:59:57;;;;;;;;;;;;;;;;;;5033993;28;19956;-77
2022/07/12 10:02:24;;;;;;;;;;;;;;;;;;5034740;28;19975;-77
2022/07/12 10:04:51;;;;;;;;;;;;;;;;;;5033753;28;19929;-78
2022/07/12 10:07:17;;;;;;;;;;;;;;;;;;5033913;28;19965;-78
2022/07/12 10:09:45;;;;;;;;;;;;;;;;;;5034348;28;19964;-78
2022/07/12 10:12:15;;;;;;;;;;;;;;;;;;5034201;28;19925;-78
2022/07/12 10:14:43;;;;;;;;;;;;;;;;;;5033862;28;19968;-79
2022/07/12 10:17:10;;;;;;;;;;;;;;;;;;5034077;28;19991;-78
2022/07/12 10:19:37;;;;;;;;;;;;;;;;;;5034011;28;19971;-79
2022/07/12 10:22:04;;;;;;;;;;;;;;;;;;5033579;28;20028;-78
2022/07/12 10:24:46;;;;;;;;;;;;;;;;;;5034393;28;19960;-79
2022/07/12 10:27:33;;;;;;;;;;;;;;;;;;5033341;28;19968;-79
2022/07/12 10:30:20;;;;;;;;;;;;;;;;;;5034005;28;19971;-78
2022/07/12 10:32:48;;;;;;;;;;;;;;;;;;5027627;28;19932;-79
2022/07/12 10:35:17;;;;;;;;;;;;;;;;;;5034423;28;19985;-79
2022/07/12 10:38:04;;;;;;;;;;;;;;;;;;5036070;28;20012;-77
2022/07/12 10:40:34;;;;;;;;;;;;;;;;;;5033361;28;19968;-78
2022/07/12 10:43:15;;;;;;;;;;;;;;;;;;5034495;28;19956;-79
2022/07/12 10:45:42;;;;;;;;;;;;;;;;;;5032308;28;19925;-79
2022/07/12 10:48:10;;;;;;;;;;;;;;;;;;5031149;28;19926;-78
2022/07/12 10:50:58;;;;;;;;;;;;;;;;;;5031687;28;19964;-78
2022/07/12 10:53:26;;;;;;;;;;;;;;;;;;5031343;28;19932;-77
2022/07/12 10:56:08;;;;;;;;;;;;;;;;;;5031054;28;19995;-78
2022/07/12 10:58:37;;;;;;;;;;;;;;;;;;5028640;28;20406;-78
2022/07/12 11:01:04;;;;;;;;;;;;;;;;;;5031498;28;19967;-78
2022/07/12 11:03:31;;;;;;;;;;;;;;;;;;5032476;28;19990;-78
2022/07/12 11:06:01;;;;;;;;;;;;;;;;;;5032198;28;20012;-78
2022/07/12 11:08:49;;;;;;;;;;;;;;;;;;5191032;27;20010;-66
2022/07/12 11:11:16;;;;;;;;;;;;;;;;;;5191417;27;20346;-66
2022/07/12 11:13:42;;;;;;;;;;;;;;;;;;5170664;27;19923;-68
2022/07/12 11:16:09;;;;;;;;;;;;;;;;;;5170783;27;19923;-67
2022/07/12 11:18:36;;;;;;;;;;;;;;;;;;5170475;27;19927;-65
2022/07/12 11:21:03;;;;;;;;;;;;;;;;;;5169490;27;20406;-66
2022/07/12 11:23:30;;;;;;;;;;;;;;;;;;5169706;27;19975;-66
2022/07/12 11:25:59;;;;;;;;;;;;;;;;;;5169555;27;20311;-65
2022/07/12 11:28:27;;;;;;;;;;;;;;;;;;5169731;27;19975;-66
2022/07/12 11:30:54;;;;;;;;;;;;;;;;;;5169682;27;20015;-66
2022/07/12 11:33:25;;;;;;;;;;;;;;;;;;5169553;27;19926;-65
2022/07/12 11:35:53;;;;;;;;;;;;;;;;;;5169742;27;20656;-66
2022/07/12 11:38:24;;;;;;;;;;;;;;;;;;5169608;27;19929;-65
2022/07/12 11:40:55;;;;;;;;;;;;;;;;;;5169716;27;19927;-66
2022/07/12 11:43:23;;;;;;;;;;;;;;;;;;5169350;27;19926;-66
2022/07/12 11:45:50;;;;;;;;;;;;;;;;;;5169658;27;19923;-63
2022/07/12 11:48:17;;;;;;;;;;;;;;;;;;5169297;27;19962;-66
2022/07/12 11:50:44;;;;;;;;;;;;;;;;;;5169487;27;19923;-66
2022/07/12 11:53:16;;;;;;;;;;;;;;;;;;5169934;27;20343;-66
2022/07/12 11:55:43;;;;;;;;;;;;;;;;;;5169166;27;19933;-66
2022/07/12 11:58:10;;;;;;;;;;;;;;;;;;5169116;27;19923;-66
2022/07/12 12:00:38;;;;;;;;;;;;;;;;;;5168806;27;19969;-66
2022/07/12 12:03:05;;;;;;;;;;;;;;;;;;5168836;27;19979;-66
2022/07/12 12:05:32;;;;;;;;;;;;;;;;;;5169326;27;19923;-66
2022/07/12 12:07:59;;;;;;;;;;;;;;;;;;5168625;27;19927;-66
2022/07/12 12:10:25;;;;;;;;;;;;;;;;;;5169166;27;20379;-66
2022/07/12 12:12:53;;;;;;;;;;;;;;;;;;5168836;27;19923;-66
2022/07/12 12:15:20;;;;;;;;;;;;;;;;;;5169089;27;20299;-66
2022/07/12 12:17:53;;;;;;;;;;;;;;;;;;5167192;27;19927;-66
2022/07/12 12:20:21;;;;;;;;;;;;;;;;;;5154329;27;19930;-66
2022/07/12 12:22:48;;;;;;;;;;;;;;;;;;5154799;27;19934;-66
2022/07/12 12:25:15;;;;;;;;;;;;;;;;;;5154840;27;19976;-66
2022/07/12 12:27:42;;;;;;;;;;;;;;;;;;5154622;27;19927;-65
2022/07/12 12:30:09;;;;;;;;;;;;;;;;;;5155059;27;20304;-66
2022/07/12 12:32:43;;;;;;;;;;;;;;;;;;5155333;27;19923;-65
2022/07/12 12:35:12;;;;;;;;;;;;;;;;;;5154757;27;19923;-66
2022/07/12 12:37:40;;;;;;;;;;;;;;;;;;5154359;27;20422;-66
2022/07/12 12:40:07;;;;;;;;;;;;;;;;;;5154457;27;19970;-63
2022/07/12 12:42:33;;;;;;;;;;;;;;;;;;5154424;27;20280;-65
2022/07/12 12:45:00;;;;;;;;;;;;;;;;;;5154307;27;19941;-65
2022/07/12 12:47:34;;;;;;;;;;;;;;;;;;5154086;27;19923;-66
2022/07/12 12:50:01;;;;;;;;;;;;;;;;;;5154270;27;20011;-66
2022/07/12 12:52:29;;;;;;;;;;;;;;;;;;5153969;27;19970;-66
2022/07/12 12:54:57;;;;;;;;;;;;;;;;;;5153945;27;19927;-66
2022/07/12 12:57:25;;;;;;;;;;;;;;;;;;5154523;27;19937;-66
2022/07/12 12:59:52;;;;;;;;;;;;;;;;;;5147139;27;20324;-66
2022/07/12 13:02:20;;;;;;;;;;;;;;;;;;5132978;27;20004;-66
2022/07/12 13:04:46;;;;;;;;;;;;;;;;;;5133063;27;19923;-65
2022/07/12 13:07:13;;;;;;;;;;;;;;;;;;5132884;27;19923;-65
2022/07/12 13:09:42;;;;;;;;;;;;;;;;;;5133377;27;19935;-65
2022/07/12 13:12:09;;;;;;;;;;;;;;;;;;5133230;27;19939;-65
2022/07/12 13:14:35;;;;;;;;;;;;;;;;;;5133389;27;20372;-65
2022/07/12 13:17:02;;;;;;;;;;;;;;;;;;5132889;27;20292;-65
2022/07/12 13:19:29;;;;;;;;;;;;;;;;;;5132718;27;19927;-64
2022/07/12 13:21:55;;;;;;;;;;;;;;;;;;5133047;27;19923;-64
2022/07/12 13:24:22;;;;;;;;;;;;;;;;;;5133143;27;19923;-65
2022/07/12 13:26:50;;;;;;;;;;;;;;;;;;5132682;27;19927;-65
2022/07/12 13:29:16;;;;;;;;;;;;;;;;;;5132402;27;19924;-64
2022/07/12 13:31:43;;;;;;;;;;;;;;;;;;5131818;27;19924;-63
2022/07/12 13:34:10;;;;;;;;;;;;;;;;;;5132754;27;19930;-64
2022/07/12 13:36:37;;;;;;;;;;;;;;;;;;5132339;27;19927;-65
2022/07/12 13:41:44;;;;;;;;;;;;;;;;;;5131183;27;19923;-65
2022/07/12 13:44:12;;;;;;;;;;;;;;;;;;5132335;27;19924;-64
2022/07/12 13:46:38;;;;;;;;;;;;;;;;;;5132219;27;20284;-64
2022/07/12 13:49:05;;;;;;;;;;;;;;;;;;5132051;27;19934;-65
2022/07/12 13:51:32;;;;;;;;;;;;;;;;;;5132262;27;19930;-64
2022/07/12 13:53:59;;;;;;;;;;;;;;;;;;5131855;27;19978;-65
2022/07/12 13:56:25;;;;;;;;;;;;;;;;;;5131762;27;19927;-65
2022/07/12 13:58:52;;;;;;;;;;;;;;;;;;5132277;27;19930;-65
2022/07/12 14:01:20;;;;;;;;;;;;;;;;;;5151525;27;19999;-65
2022/07/12 14:03:46;;;;;;;;;;;;;;;;;;5153186;27;19923;-65
2022/07/12 14:06:13;;;;;;;;;;;;;;;;;;5152417;27;19987;-65
2022/07/12 14:08:39;;;;;;;;;;;;;;;;;;5152706;27;19923;-65
2022/07/12 14:11:06;;;;;;;;;;;;;;;;;;5157197;22;19932;-61
2022/07/12 14:13:32;;;;;;;;;;;;;;;;;;5111493;28;19935;-62
2022/07/12 14:16:00;;;;;;;;;;;;;;;;;;5111044;28;19930;-62
2022/07/12 14:18:28;;;;;;;;;;;;;;;;;;5111373;28;19930;-62
2022/07/12 14:20:54;;;;;;;;;;;;;;;;;;5111390;28;20403;-62
2022/07/12 14:23:21;;;;;;;;;;;;;;;;;;5111563;28;19976;-61
2022/07/12 14:25:48;;;;;;;;;;;;;;;;;;5111246;28;19939;-61
2022/07/12 14:28:14;;;;;;;;;;;;;;;;;;5110978;28;19923;-62
2022/07/12 14:30:41;;;;;;;;;;;;;;;;;;5110955;28;19924;-61
2022/07/12 14:33:07;;;;;;;;;;;;;;;;;;5111118;28;19924;-62
2022/07/12 14:35:35;;;;;;;;;;;;;;;;;;5111192;28;19951;-61
2022/07/12 14:38:02;;;;;;;;;;;;;;;;;;5110750;28;19924;-62
2022/07/12 14:40:29;;;;;;;;;;;;;;;;;;5110927;28;19924;-61
2022/07/12 14:42:56;;;;;;;;;;;;;;;;;;5110521;28;19947;-62
2022/07/12 14:45:23;;;;;;;;;;;;;;;;;;5111058;28;20057;-63
2022/07/12 14:47:50;;;;;;;;;;;;;;;;;;5110440;28;19923;-61
2022/07/12 14:50:16;;;;;;;;;;;;;;;;;;5110748;28;20135;-63
2022/07/12 14:52:45;;;;;;;;;;;;;;;;;;5110713;28;20151;-61
2022/07/12 14:55:12;;;;;;;;;;;;;;;;;;5110678;28;19924;-62
2022/07/12 14:57:39;;;;;;;;;;;;;;;;;;5110256;28;20014;-64
2022/07/12 15:00:06;;;;;;;;;;;;;;;;;;5110804;28;20408;-62
2022/07/12 15:02:33;;;;;;;;;;;;;;;;;;5110473;28;19960;-60
2022/07/12 15:05:03;;;;;;;;;;;;;;;;;;5110691;28;19928;-62
2022/07/12 15:07:29;;;;;;;;;;;;;;;;;;5110779;28;20323;-62
2022/07/12 15:09:57;;;;;;;;;;;;;;;;;;5110596;28;20387;-62
2022/07/12 15:12:24;;;;;;;;;;;;;;;;;;5110290;28;19927;-61
2022/07/12 15:14:51;;;;;;;;;;;;;;;;;;5110140;28;19928;-63
2022/07/12 15:17:18;;;;;;;;;;;;;;;;;;5109278;28;19931;-62
2022/07/12 15:19:45;;;;;;;;;;;;;;;;;;5103933;28;20296;-63
2022/07/12 15:22:13;;;;;;;;;;;;;;;;;;5110285;28;19924;-62
2022/07/12 15:24:39;;;;;;;;;;;;;;;;;;5110033;28;19953;-62
2022/07/12 15:27:08;;;;;;;;;;;;;;;;;;5110169;28;20206;-63
2022/07/12 15:29:35;;;;;;;;;;;;;;;;;;5110323;28;19934;-62
2022/07/12 15:32:01;;;;;;;;;;;;;;;;;;5110357;28;19927;-62
2022/07/12 15:34:28;;;;;;;;;;;;;;;;;;5110807;28;19968;-63
2022/07/12 15:36:55;;;;;;;;;;;;;;;;;;5110179;28;20430;-61
2022/07/12 15:39:22;;;;;;;;;;;;;;;;;;5110016;28;20001;-62
2022/07/12 15:41:48;;;;;;;;;;;;;;;;;;5110463;28;20490;-62
2022/07/12 15:44:17;;;;;;;;;;;;;;;;;;5110430;28;19932;-62
2022/07/12 15:46:44;;;;;;;;;;;;;;;;;;5109974;28;20438;-63
2022/07/12 15:49:11;;;;;;;;;;;;;;;;;;5110261;28;19924;-62
2022/07/12 15:54:22;;;;;;;;;;;;;;;;;;5112809;28;20453;-61
2022/07/12 15:56:48;;;;;;;;;;;;;;;;;;5113822;28;19923;-62
2022/07/12 15:59:18;;;;;;;;;;;;;;;;;;5112438;28;19923;-62
2022/07/12 16:01:44;;;;;;;;;;;;;;;;;;5094127;28;19924;-62
2022/07/12 16:04:11;;;;;;;;;;;;;;;;;;5094166;28;20251;-62
2022/07/12 16:06:38;;;;;;;;;;;;;;;;;;5093376;28;19927;-62
2022/07/12 16:09:05;;;;;;;;;;;;;;;;;;5093587;28;19928;-62
2022/07/12 16:11:31;;;;;;;;;;;;;;;;;;5093082;28;20020;-61
2022/07/12 16:13:58;;;;;;;;;;;;;;;;;;5093336;28;20372;-62
2022/07/12 16:16:26;;;;;;;;;;;;;;;;;;5093237;28;19935;-62
2022/07/12 16:18:53;;;;;;;;;;;;;;;;;;5093075;28;19924;-61
2022/07/12 16:21:19;;;;;;;;;;;;;;;;;;5092997;28;20400;-61
2022/07/12 16:23:46;;;;;;;;;;;;;;;;;;5093253;28;20195;-61
2022/07/12 16:26:12;;;;;;;;;;;;;;;;;;5092842;28;19924;-62
2022/07/12 16:28:39;;;;;;;;;;;;;;;;;;5093313;28;19936;-61
2022/07/12 16:31:06;;;;;;;;;;;;;;;;;;5093023;28;20396;-61
2022/07/12 16:33:34;;;;;;;;;;;;;;;;;;5092882;28;19977;-61
2022/07/12 16:36:01;;;;;;;;;;;;;;;;;;5092690;28;19924;-62
2022/07/12 16:38:27;;;;;;;;;;;;;;;;;;5092781;28;19932;-61
2022/07/12 16:40:55;;;;;;;;;;;;;;;;;;5092823;28;19924;-63
2022/07/12 16:43:21;;;;;;;;;;;;;;;;;;5092844;28;19924;-62
2022/07/12 16:45:48;;;;;;;;;;;;;;;;;;5092832;28;19924;-62
2022/07/12 16:48:14;;;;;;;;;;;;;;;;;;5092304;28;20430;-62
2022/07/12 16:50:42;;;;;;;;;;;;;;;;;;5092636;28;20334;-62
2022/07/12 16:53:09;;;;;;;;;;;;;;;;;;5092503;28;19982;-62
2022/07/12 16:55:36;;;;;;;;;;;;;;;;;;5092416;28;19985;-62
2022/07/12 16:58:04;;;;;;;;;;;;;;;;;;5092139;28;19963;-62
2022/07/12 17:00:30;;;;;;;;;;;;;;;;;;5104355;28;20011;-62